Time;durP1;ratioP1;P1;durP2;ratioP2;P2;SDS_P1;SDS_P2;PMS_P1;PMS_P2;Temp;Humidity;BMP_temperature;BMP_pressure;BME280_temperature;BME280_humidity;BME280_pressure;Samples;Min_cycle;Max_cycle;Signal;HPM_P1;HPM_P2
2021/11/23 00:00:01;;;;;;;12.40;5.17;;;6.50;94.90;;;;;;5037234;28;20705;-84
2021/11/23 00:02:27;;;;;;;11.23;5.97;;;6.60;94.90;;;;;;5037340;28;20596;-85
2021/11/23 00:04:53;;;;;;;13.90;6.13;;;6.60;95.00;;;;;;5037517;28;20181;-85
2021/11/23 00:07:19;;;;;;;12.10;6.20;;;6.60;95.00;;;;;;5038152;28;20280;-81
2021/11/23 00:09:44;;;;;;;12.97;6.50;;;6.60;95.00;;;;;;5039142;28;20258;-83
2021/11/23 00:12:10;;;;;;;18.73;6.60;;;6.60;95.00;;;;;;5038891;28;20525;-83
2021/11/23 00:14:36;;;;;;;16.57;8.10;;;6.60;95.00;;;;;;5037095;28;20184;-85
2021/11/23 00:17:02;;;;;;;14.20;7.53;;;6.60;95.00;;;;;;5038157;28;20176;-85
2021/11/23 00:19:27;;;;;;;10.97;6.77;;;6.70;95.10;;;;;;5038307;28;20657;-86
2021/11/23 00:21:53;;;;;;;12.97;7.57;;;6.70;95.10;;;;;;5039919;28;20190;-81
2021/11/23 00:24:18;;;;;;;14.97;7.63;;;6.70;95.20;;;;;;5038360;28;20176;-83
2021/11/23 00:26:44;;;;;;;12.13;7.37;;;6.70;95.20;;;;;;5038492;28;20175;-86
2021/11/23 00:29:10;;;;;;;16.87;9.33;;;6.70;95.30;;;;;;5039006;28;20227;-85
2021/11/23 00:31:35;;;;;;;18.10;9.00;;;6.70;95.30;;;;;;5038546;28;20209;-83
2021/11/23 00:34:01;;;;;;;16.63;7.83;;;6.70;95.30;;;;;;5038455;28;20169;-84
2021/11/23 00:36:27;;;;;;;17.87;8.87;;;6.70;95.30;;;;;;5038109;28;20189;-86
2021/11/23 00:38:52;;;;;;;15.87;8.73;;;6.70;95.40;;;;;;5038044;28;20561;-85
2021/11/23 00:41:18;;;;;;;15.50;8.97;;;6.70;95.40;;;;;;5035903;28;20291;-84
2021/11/23 00:43:45;;;;;;;16.30;8.80;;;6.70;95.40;;;;;;5037233;28;20176;-84
2021/11/23 00:46:12;;;;;;;11.37;7.70;;;6.80;95.50;;;;;;5036152;28;20172;-85
2021/11/23 00:48:38;;;;;;;9.90;8.23;;;6.70;95.50;;;;;;5036843;28;20216;-83
2021/11/23 00:51:05;;;;;;;19.67;8.27;;;6.80;95.50;;;;;;5037380;28;20267;-84
2021/11/23 00:53:33;;;;;;;15.83;9.43;;;6.80;95.50;;;;;;5036713;28;20640;-86
2021/11/23 00:55:59;;;;;;;17.60;10.40;;;6.80;95.50;;;;;;5036969;28;20282;-86
2021/11/23 00:58:25;;;;;;;13.63;9.57;;;6.80;95.50;;;;;;5036990;28;20562;-84
2021/11/23 01:00:51;;;;;;;21.37;9.27;;;6.80;95.50;;;;;;5036908;28;20183;-84
2021/11/23 01:03:17;;;;;;;16.67;10.20;;;6.80;95.60;;;;;;5036852;28;20227;-84
2021/11/23 01:05:45;;;;;;;15.63;10.37;;;6.90;95.60;;;;;;5036484;28;20176;-83
2021/11/23 01:08:11;;;;;;;18.93;9.80;;;6.80;95.50;;;;;;5036123;28;20243;-83
2021/11/23 01:10:37;;;;;;;17.17;9.63;;;6.90;95.60;;;;;;5037163;28;20161;-82
2021/11/23 01:13:03;;;;;;;17.23;10.10;;;6.90;95.50;;;;;;5037112;28;20181;-83
2021/11/23 01:15:28;;;;;;;16.10;10.80;;;6.90;95.50;;;;;;5036663;28;20212;-85
2021/11/23 01:17:54;;;;;;;20.07;10.40;;;6.90;95.50;;;;;;5035462;28;20247;-85
2021/11/23 01:20:21;;;;;;;13.47;9.33;;;6.90;95.50;;;;;;5035121;28;20552;-82
2021/11/23 01:22:47;;;;;;;25.00;11.60;;;6.90;95.60;;;;;;5036457;28;20176;-85
2021/11/23 01:25:13;;;;;;;15.43;10.67;;;6.90;95.60;;;;;;5036176;28;20180;-85
2021/11/23 01:27:39;;;;;;;14.60;10.40;;;6.90;95.60;;;;;;5036739;28;20619;-83
2021/11/23 01:30:07;;;;;;;12.27;9.63;;;6.90;95.60;;;;;;5035393;28;20207;-84
2021/11/23 01:32:33;;;;;;;14.37;11.37;;;7.00;95.60;;;;;;5036893;28;20185;-86
2021/11/23 01:34:58;;;;;;;15.43;10.97;;;7.00;95.60;;;;;;5036345;28;20216;-85
2021/11/23 01:37:24;;;;;;;13.33;11.77;;;7.00;95.60;;;;;;5036400;28;20169;-83
2021/11/23 01:39:50;;;;;;;17.33;11.03;;;7.00;95.60;;;;;;5034552;28;20177;-82
2021/11/23 01:42:15;;;;;;;18.57;11.93;;;7.00;95.60;;;;;;5036193;28;20184;-82
2021/11/23 01:44:41;;;;;;;18.93;11.37;;;7.00;95.60;;;;;;5034602;28;20184;-84
2021/11/23 01:47:07;;;;;;;15.57;11.30;;;7.00;95.60;;;;;;5035573;28;20173;-85
2021/11/23 01:49:32;;;;;;;16.20;11.27;;;6.90;95.50;;;;;;5036068;28;20669;-82
2021/11/23 01:51:58;;;;;;;19.80;12.20;;;7.00;95.60;;;;;;5034452;28;20184;-83
2021/11/23 01:54:24;;;;;;;18.20;11.77;;;7.00;95.60;;;;;;5035623;28;20235;-83
2021/11/23 01:56:50;;;;;;;15.60;12.07;;;7.00;95.60;;;;;;5036270;28;20625;-84
2021/11/23 01:59:16;;;;;;;16.57;11.20;;;7.00;95.60;;;;;;5034309;28;20200;-82
2021/11/23 02:01:41;;;;;;;18.40;12.13;;;7.00;95.60;;;;;;5034717;28;20662;-85
2021/11/23 02:04:08;;;;;;;15.97;11.43;;;7.00;95.60;;;;;;5035456;28;20251;-82
2021/11/23 02:06:33;;;;;;;15.77;11.67;;;7.00;95.60;;;;;;5035847;28;20177;-82
2021/11/23 02:09:01;;;;;;;16.67;11.57;;;7.00;95.60;;;;;;5034039;28;20219;-82
2021/11/23 02:11:27;;;;;;;14.90;11.30;;;7.00;95.60;;;;;;5035767;28;20181;-83
2021/11/23 02:13:53;;;;;;;14.30;11.03;;;7.00;95.60;;;;;;5036082;28;20181;-83
2021/11/23 02:16:18;;;;;;;15.20;11.77;;;7.20;95.70;;;;;;5036052;28;20634;-86
2021/11/23 02:18:44;;;;;;;17.77;12.30;;;7.20;95.70;;;;;;5035219;28;20188;-85
2021/11/23 02:21:10;;;;;;;20.70;12.70;;;7.20;95.60;;;;;;5035636;28;20540;-82
2021/11/23 02:23:36;;;;;;;20.23;11.83;;;7.20;95.70;;;;;;5033697;28;20181;-82
2021/11/23 02:26:03;;;;;;;15.33;11.43;;;7.10;95.70;;;;;;5033961;28;20301;-83
2021/11/23 02:28:29;;;;;;;20.17;11.80;;;7.10;95.60;;;;;;5034309;28;20212;-82
2021/11/23 02:30:57;;;;;;;15.57;10.47;;;7.20;95.70;;;;;;5036176;28;20180;-85
2021/11/23 02:33:25;;;;;;;18.70;9.73;;;7.10;95.70;;;;;;5034352;28;20185;-83
2021/11/23 02:35:53;;;;;;;15.00;10.30;;;7.10;95.60;;;;;;5034335;28;20583;-83
2021/11/23 02:38:24;;;;;;;17.47;9.77;;;7.00;95.60;;;;;;5034329;28;20230;-86
2021/11/23 02:40:51;;;;;;;15.57;9.33;;;7.00;95.60;;;;;;5034318;28;20592;-82
2021/11/23 02:43:17;;;;;;;12.97;8.67;;;6.90;95.60;;;;;;5035244;28;20256;-85
2021/11/23 02:45:43;;;;;;;14.40;8.07;;;6.80;95.60;;;;;;5035559;28;20633;-85
2021/11/23 02:48:11;;;;;;;12.53;6.97;;;6.80;95.60;;;;;;5035759;28;20634;-82
2021/11/23 02:50:39;;;;;;;13.50;6.47;;;6.80;95.60;;;;;;5035998;28;20258;-83
2021/11/23 02:53:05;;;;;;;11.07;5.60;;;6.80;95.60;;;;;;5035884;28;20203;-85
2021/11/23 02:55:33;;;;;;;15.53;5.47;;;6.80;95.60;;;;;;5033924;28;20200;-86
2021/11/23 02:58:05;;;;;;;15.33;6.20;;;6.80;95.60;;;;;;5035881;28;20244;-85
2021/11/23 03:00:31;;;;;;;12.67;5.63;;;6.80;95.60;;;;;;5035697;28;20161;-82
2021/11/23 03:02:57;;;;;;;14.57;4.87;;;6.80;95.60;;;;;;5035748;28;20169;-85
2021/11/23 03:05:25;;;;;;;15.83;5.33;;;6.70;95.60;;;;;;5035541;28;20179;-84
2021/11/23 03:07:53;;;;;;;11.93;4.90;;;6.70;95.60;;;;;;5035136;28;20224;-83
2021/11/23 03:10:21;;;;;;;17.70;6.27;;;6.70;95.60;;;;;;5035408;28;20195;-85
2021/11/23 03:12:49;;;;;;;14.63;6.77;;;6.70;95.60;;;;;;5035724;28;20180;-82
2021/11/23 03:15:16;;;;;;;15.73;5.00;;;6.70;95.60;;;;;;5035283;28;20199;-84
2021/11/23 03:17:41;;;;;;;20.93;6.37;;;6.60;95.60;;;;;;5037724;28;20977;-83
2021/11/23 03:20:12;;;;;;;13.27;5.30;;;6.60;95.50;;;;;;5039577;28;20219;-85
2021/11/23 03:22:38;;;;;;;12.73;5.70;;;6.50;95.50;;;;;;5039637;28;20250;-83
2021/11/23 03:25:05;;;;;;;14.20;5.63;;;6.50;95.50;;;;;;5037554;28;20186;-82
2021/11/23 03:27:30;;;;;;;10.53;5.47;;;6.50;95.50;;;;;;5039910;28;20207;-84
2021/11/23 03:29:56;;;;;;;15.10;5.63;;;6.60;95.50;;;;;;5040605;28;20177;-85
2021/11/23 03:32:22;;;;;;;14.50;6.83;;;6.70;95.60;;;;;;5039071;28;20265;-83
2021/11/23 03:34:50;;;;;;;15.20;7.53;;;6.70;95.60;;;;;;5040666;28;20191;-83
2021/11/23 03:37:20;;;;;;;15.27;7.73;;;6.70;95.60;;;;;;5040964;28;20173;-82
2021/11/23 03:39:47;;;;;;;21.57;10.17;;;6.60;95.60;;;;;;5039743;28;20561;-86
2021/11/23 03:42:13;;;;;;;18.43;9.63;;;6.60;95.60;;;;;;5039266;28;20259;-85
2021/11/23 03:44:38;;;;;;;16.93;10.07;;;6.50;95.60;;;;;;5039554;28;20598;-84
2021/11/23 03:47:06;;;;;;;19.60;10.83;;;6.50;95.60;;;;;;5039472;28;20664;-85
2021/11/23 03:49:33;;;;;;;27.93;12.53;;;6.50;95.60;;;;;;5038841;28;20220;-85
2021/11/23 03:51:59;;;;;;;22.37;12.57;;;6.50;95.60;;;;;;5038898;28;20660;-84
2021/11/23 03:54:25;;;;;;;21.07;11.43;;;6.50;95.60;;;;;;5039364;28;20172;-85
2021/11/23 03:56:51;;;;;;;24.10;14.07;;;6.50;95.60;;;;;;5039505;28;20255;-83
2021/11/23 03:59:18;;;;;;;27.67;15.27;;;6.50;95.70;;;;;;5037465;28;20570;-86
2021/11/23 04:01:44;;;;;;;28.43;15.50;;;6.60;95.70;;;;;;5037696;28;20652;-84
2021/11/23 04:04:09;;;;;;;26.67;14.40;;;6.60;95.70;;;;;;5039309;28;20643;-83
2021/11/23 04:06:35;;;;;;;30.73;16.07;;;6.60;95.70;;;;;;5039043;28;20267;-84
2021/11/23 04:09:01;;;;;;;35.10;15.60;;;6.50;95.70;;;;;;5037226;28;20223;-84
2021/11/23 04:11:27;;;;;;;36.50;17.10;;;6.50;95.70;;;;;;5037401;28;20557;-83
2021/11/23 04:13:52;;;;;;;36.70;16.03;;;6.50;95.70;;;;;;5038502;28;20181;-83
2021/11/23 04:16:18;;;;;;;33.77;16.50;;;6.50;95.70;;;;;;5039919;28;20212;-84
2021/11/23 04:18:44;;;;;;;33.30;15.33;;;6.40;95.70;;;;;;5039727;28;20193;-82
2021/11/23 04:21:11;;;;;;;38.47;15.73;;;6.50;95.70;;;;;;5040314;28;20208;-82
2021/11/23 04:23:37;;;;;;;33.20;15.20;;;6.50;95.70;;;;;;5039829;28;20183;-86
2021/11/23 04:26:04;;;;;;;35.23;15.50;;;6.40;95.70;;;;;;5038286;28;20211;-83
2021/11/23 04:28:29;;;;;;;37.47;15.73;;;6.40;95.80;;;;;;5037674;28;20208;-82
2021/11/23 04:30:55;;;;;;;32.70;14.27;;;6.40;95.80;;;;;;5040310;28;20616;-85
2021/11/23 04:33:21;;;;;;;35.97;13.70;;;6.40;95.80;;;;;;5039325;28;20173;-83
2021/11/23 04:35:47;;;;;;;32.13;14.40;;;6.40;95.80;;;;;;5038889;28;20196;-83
2021/11/23 04:38:13;;;;;;;31.03;14.50;;;6.40;95.80;;;;;;5037027;28;20279;-84
2021/11/23 04:40:39;;;;;;;23.07;11.70;;;6.50;95.80;;;;;;5037311;28;20180;-86
2021/11/23 04:43:06;;;;;;;36.73;14.93;;;6.40;95.80;;;;;;5038881;28;20184;-83
2021/11/23 04:45:33;;;;;;;28.97;13.63;;;6.40;95.70;;;;;;5037417;28;20188;-83
2021/11/23 04:47:59;;;;;;;28.20;12.33;;;6.40;95.80;;;;;;5038598;28;20277;-82
2021/11/23 04:50:24;;;;;;;28.37;13.07;;;6.40;95.70;;;;;;5038341;28;20226;-83
2021/11/23 04:52:50;;;;;;;29.27;13.77;;;6.40;95.70;;;;;;5037679;28;20252;-83
2021/11/23 04:55:16;;;;;;;32.80;11.93;;;6.40;95.70;;;;;;5037520;28;20291;-85
2021/11/23 04:57:42;;;;;;;30.33;12.20;;;6.30;95.70;;;;;;5037645;28;20210;-83
2021/11/23 05:00:11;;;;;;;31.93;11.87;;;6.30;95.70;;;;;;5037639;28;20258;-86
2021/11/23 05:02:37;;;;;;;24.93;11.13;;;6.30;95.70;;;;;;5036614;28;20173;-80
2021/11/23 05:05:04;;;;;;;30.30;11.00;;;6.40;95.70;;;;;;5035657;28;20638;-84
2021/11/23 05:07:30;;;;;;;24.67;8.97;;;6.30;95.70;;;;;;5037079;28;20180;-85
2021/11/23 05:09:55;;;;;;;21.90;9.47;;;6.40;95.70;;;;;;5036537;28;20560;-83
2021/11/23 05:12:21;;;;;;;23.67;8.37;;;6.40;95.70;;;;;;5038020;28;20177;-83
2021/11/23 05:14:47;;;;;;;18.57;7.47;;;6.40;95.60;;;;;;5036280;28;20207;-83
2021/11/23 05:17:13;;;;;;;21.03;7.30;;;6.40;95.60;;;;;;5036316;28;20256;-84
2021/11/23 05:19:39;;;;;;;22.43;7.37;;;6.40;95.60;;;;;;5036330;28;20227;-83
2021/11/23 05:22:06;;;;;;;18.50;6.37;;;6.40;95.50;;;;;;5037922;28;20169;-83
2021/11/23 05:24:32;;;;;;;24.47;5.90;;;6.40;95.50;;;;;;5037146;28;20173;-84
2021/11/23 05:26:58;;;;;;;13.47;5.80;;;6.30;95.40;;;;;;5037770;28;20278;-83
2021/11/23 05:29:24;;;;;;;13.83;5.40;;;6.30;95.40;;;;;;5035905;28;20668;-82
2021/11/23 05:31:50;;;;;;;15.50;5.83;;;6.20;95.30;;;;;;5035809;28;20617;-82
2021/11/23 05:34:15;;;;;;;19.27;6.53;;;6.20;95.30;;;;;;5037396;28;20164;-83
2021/11/23 05:36:41;;;;;;;17.40;4.90;;;6.00;95.20;;;;;;5037219;28;20192;-82
2021/11/23 05:39:07;;;;;;;15.07;4.37;;;6.00;95.20;;;;;;5036417;28;20224;-83
2021/11/23 05:41:33;;;;;;;16.10;5.80;;;6.00;95.20;;;;;;5035640;28;20212;-83
2021/11/23 05:43:59;;;;;;;18.93;4.47;;;5.90;95.20;;;;;;5037849;28;20172;-83
2021/11/23 05:46:24;;;;;;;18.80;4.00;;;6.00;95.20;;;;;;5036921;28;20176;-82
2021/11/23 05:48:52;;;;;;;12.47;3.97;;;5.90;95.20;;;;;;5036875;28;20215;-85
2021/11/23 05:51:18;;;;;;;13.43;4.77;;;6.00;95.20;;;;;;5035134;28;20180;-82
2021/11/23 05:53:44;;;;;;;19.30;4.33;;;6.00;95.20;;;;;;5036731;28;20172;-82
2021/11/23 05:56:09;;;;;;;18.33;5.60;;;6.00;95.20;;;;;;5036957;28;20558;-82
2021/11/23 05:58:38;;;;;;;25.30;5.47;;;6.00;95.20;;;;;;5036630;28;20192;-85
2021/11/23 06:01:05;;;;;;;19.07;5.17;;;6.00;95.30;;;;;;5035319;28;20212;-84
2021/11/23 06:03:31;;;;;;;23.57;5.20;;;6.10;95.30;;;;;;5033991;28;20180;-81
2021/11/23 06:05:57;;;;;;;13.70;4.80;;;6.10;95.30;;;;;;5035789;28;20204;-86
2021/11/23 06:08:23;;;;;;;19.63;4.63;;;6.20;95.30;;;;;;5035209;28;20204;-83
2021/11/23 06:10:49;;;;;;;18.27;4.63;;;6.20;95.40;;;;;;5035785;28;20233;-80
2021/11/23 06:13:15;;;;;;;25.07;4.33;;;6.30;95.50;;;;;;5034655;28;20298;-84
2021/11/23 06:15:44;;;;;;;16.33;4.07;;;6.40;95.50;;;;;;5036500;28;20296;-83
2021/11/23 06:18:13;;;;;;;18.83;4.37;;;6.30;95.40;;;;;;5035935;28;20185;-83
2021/11/23 06:20:39;;;;;;;18.13;5.20;;;6.30;95.40;;;;;;5033965;28;20226;-84
2021/11/23 06:23:05;;;;;;;19.07;3.77;;;6.40;95.50;;;;;;5035308;28;20180;-80
2021/11/23 06:25:31;;;;;;;19.00;4.40;;;6.40;95.50;;;;;;5035593;28;20174;-83
2021/11/23 06:27:57;;;;;;;14.70;3.93;;;6.40;95.50;;;;;;5034039;28;20204;-83
2021/11/23 06:30:23;;;;;;;23.53;4.77;;;6.40;95.50;;;;;;5035210;28;20572;-82
2021/11/23 06:32:49;;;;;;;17.83;4.30;;;6.30;95.50;;;;;;5035133;28;20302;-83
2021/11/23 06:35:15;;;;;;;15.63;3.60;;;6.30;95.50;;;;;;5034851;28;20193;-82
2021/11/23 06:37:41;;;;;;;17.63;3.70;;;6.30;95.50;;;;;;5035534;28;20222;-83
2021/11/23 06:40:09;;;;;;;16.93;4.13;;;6.30;95.50;;;;;;5035182;28;20165;-83
2021/11/23 06:42:34;;;;;;;16.53;3.80;;;6.20;95.50;;;;;;5033506;28;20657;-83
2021/11/23 06:45:00;;;;;;;10.67;2.87;;;6.20;95.50;;;;;;5035117;28;20179;-83
2021/11/23 06:47:26;;;;;;;10.03;2.20;;;6.40;95.60;;;;;;5034992;28;20655;-84
2021/11/23 06:49:52;;;;;;;10.57;2.37;;;6.70;95.70;;;;;;5035428;28;20208;-84
2021/11/23 06:52:18;;;;;;;11.57;2.67;;;6.80;95.50;;;;;;5035006;28;20189;-83
2021/11/23 06:54:45;;;;;;;12.57;3.90;;;6.80;95.40;;;;;;5034964;28;20629;-82
2021/11/23 06:57:11;;;;;;;11.67;2.20;;;6.90;95.30;;;;;;5035286;28;20219;-84
2021/11/23 06:59:38;;;;;;;13.77;1.97;;;6.90;95.20;;;;;;5035669;28;20188;-82
2021/11/23 07:02:04;;;;;;;11.70;1.80;;;6.90;95.10;;;;;;5033727;28;20173;-83
2021/11/23 07:04:29;;;;;;;11.33;1.80;;;7.00;95.00;;;;;;5033516;28;20607;-83
2021/11/23 07:06:55;;;;;;;9.37;1.50;;;6.90;94.90;;;;;;5034926;28;20184;-82
2021/11/23 07:09:21;;;;;;;16.30;3.97;;;6.90;94.80;;;;;;5039166;28;20212;-82
2021/11/23 07:11:46;;;;;;;8.23;1.53;;;6.90;94.70;;;;;;5040267;28;20175;-82
2021/11/23 07:14:12;;;;;;;10.03;1.80;;;6.90;94.60;;;;;;5038752;28;20183;-83
2021/11/23 07:16:39;;;;;;;8.80;1.50;;;7.00;94.50;;;;;;5040308;28;20219;-82
2021/11/23 07:19:05;;;;;;;3.90;1.10;;;7.00;94.30;;;;;;5040170;28;20196;-82
2021/11/23 07:21:31;;;;;;;5.63;1.40;;;7.00;94.20;;;;;;5040910;28;20177;-82
2021/11/23 07:23:58;;;;;;;8.33;1.70;;;6.90;94.10;;;;;;5041207;28;20176;-81
2021/11/23 07:26:25;;;;;;;15.73;3.30;;;6.90;94.10;;;;;;5038737;28;20184;-83
2021/11/23 07:28:50;;;;;;;13.43;1.70;;;6.80;94.20;;;;;;5038802;28;20673;-82
2021/11/23 07:31:16;;;;;;;9.83;2.33;;;6.80;94.30;;;;;;5039121;28;20244;-82
2021/11/23 07:33:42;;;;;;;17.13;2.23;;;6.80;94.30;;;;;;5041768;28;20554;-82
2021/11/23 07:36:08;;;;;;;9.60;1.60;;;6.80;94.30;;;;;;5040866;28;20684;-82
2021/11/23 07:38:34;;;;;;;11.67;1.70;;;6.80;94.40;;;;;;5039436;28;20220;-82
2021/11/23 07:41:00;;;;;;;9.00;2.43;;;6.80;94.40;;;;;;5040959;28;20179;-82
2021/11/23 07:43:25;;;;;;;12.77;2.07;;;6.80;94.40;;;;;;5040813;28;20173;-83
2021/11/23 07:45:51;;;;;;;9.20;1.80;;;6.70;94.40;;;;;;5038874;28;20173;-83
2021/11/23 07:48:17;;;;;;;9.60;1.97;;;6.70;94.50;;;;;;5038336;28;20196;-83
2021/11/23 07:50:42;;;;;;;9.00;1.70;;;6.70;94.50;;;;;;5039300;28;20192;-83
2021/11/23 07:53:08;;;;;;;9.90;1.83;;;6.70;94.50;;;;;;5037663;28;20192;-82
2021/11/23 07:55:35;;;;;;;7.10;1.90;;;6.70;94.60;;;;;;5039090;28;20236;-83
2021/11/23 07:58:00;;;;;;;10.73;2.43;;;6.80;94.60;;;;;;5037366;28;20723;-82
2021/11/23 08:00:28;;;;;;;11.57;2.27;;;6.80;94.70;;;;;;5037482;28;20176;-82
2021/11/23 08:02:55;;;;;;;12.40;2.07;;;6.80;94.70;;;;;;5037237;28;20176;-82
2021/11/23 08:05:22;;;;;;;8.73;2.07;;;6.80;94.80;;;;;;5040296;28;20191;-82
2021/11/23 08:07:47;;;;;;;10.60;2.13;;;6.90;94.80;;;;;;5042521;28;20711;-83
2021/11/23 08:10:13;;;;;;;11.57;1.90;;;7.00;94.90;;;;;;5040833;28;20176;-82
2021/11/23 08:12:39;;;;;;;11.83;2.00;;;6.90;94.90;;;;;;5042021;28;20527;-82
2021/11/23 08:15:05;;;;;;;9.50;2.23;;;6.90;94.90;;;;;;5041127;28;20192;-82
2021/11/23 08:17:31;;;;;;;12.60;2.10;;;6.90;94.90;;;;;;5041510;28;20173;-82
2021/11/23 08:19:57;;;;;;;11.63;2.07;;;6.90;94.80;;;;;;5041170;28;20274;-82
2021/11/23 08:22:23;;;;;;;5.87;1.80;;;6.90;94.80;;;;;;5041867;28;20188;-82
2021/11/23 08:24:49;;;;;;;14.80;2.23;;;7.00;94.90;;;;;;5041527;28;20177;-82
2021/11/23 08:27:15;;;;;;;13.43;4.10;;;7.00;94.80;;;;;;5041259;28;20279;-82
2021/11/23 08:29:40;;;;;;;11.33;1.93;;;7.00;94.80;;;;;;5040897;28;20196;-82
2021/11/23 08:32:06;;;;;;;8.67;1.93;;;7.00;94.90;;;;;;5041391;28;20179;-82
2021/11/23 08:34:32;;;;;;;12.30;2.50;;;7.10;94.90;;;;;;5039169;28;20595;-82
2021/11/23 08:36:58;;;;;;;22.43;3.07;;;7.10;94.90;;;;;;5039916;28;20196;-85
2021/11/23 08:39:23;;;;;;;13.83;2.57;;;7.20;94.90;;;;;;5040541;28;20208;-85
2021/11/23 08:41:49;;;;;;;15.63;2.30;;;7.30;94.90;;;;;;5041224;28;20169;-85
2021/11/23 08:44:16;;;;;;;9.53;2.23;;;7.30;94.80;;;;;;5040899;28;20263;-85
2021/11/23 08:46:42;;;;;;;15.30;2.63;;;7.30;94.80;;;;;;5042567;28;20303;-85
2021/11/23 08:49:07;;;;;;;12.37;2.97;;;7.40;94.70;;;;;;5041683;28;20786;-87
2021/11/23 08:51:37;;;;;;;15.07;2.10;;;7.30;94.60;;;;;;5039590;28;20180;-85
2021/11/23 08:54:04;;;;;;;10.87;2.40;;;7.30;94.50;;;;;;5041783;28;20173;-86
2021/11/23 08:56:35;;;;;;;9.80;1.90;;;7.30;94.50;;;;;;5040472;28;20216;-86
2021/11/23 08:59:04;;;;;;;13.20;2.07;;;7.30;94.50;;;;;;5041589;28;20243;-86
2021/11/23 09:01:30;;;;;;;10.40;2.10;;;7.30;94.50;;;;;;5041115;28;20295;-85
2021/11/23 09:03:55;;;;;;;15.60;2.23;;;7.30;94.50;;;;;;5042902;28;20165;-86
2021/11/23 09:06:25;;;;;;;8.80;2.00;;;7.40;94.50;;;;;;5042389;28;20176;-84
2021/11/23 09:08:58;;;;;;;12.13;2.13;;;7.40;94.60;;;;;;5040608;28;20588;-86
2021/11/23 09:11:24;;;;;;;8.33;1.80;;;7.40;94.60;;;;;;5041237;28;20176;-85
2021/11/23 09:13:51;;;;;;;8.60;1.87;;;7.40;94.60;;;;;;5039039;28;20243;-85
2021/11/23 09:16:17;;;;;;;7.83;1.53;;;7.50;94.70;;;;;;5038229;28;20579;-84
2021/11/23 09:18:43;;;;;;;12.97;2.30;;;7.60;94.70;;;;;;5037852;28;20193;-84
2021/11/23 09:21:09;;;;;;;14.27;1.97;;;7.70;94.70;;;;;;5039960;28;20180;-85
2021/11/23 09:23:34;;;;;;;14.83;1.60;;;7.80;94.70;;;;;;5039626;28;20204;-84
2021/11/23 09:26:00;;;;;;;7.50;1.50;;;7.90;94.60;;;;;;5039770;28;20256;-85
2021/11/23 09:28:25;;;;;;;11.90;1.70;;;8.10;94.50;;;;;;5039504;28;20188;-85
2021/11/23 09:30:51;;;;;;;7.93;1.43;;;8.20;94.30;;;;;;5040318;28;20169;-85
2021/11/23 09:33:17;;;;;;;11.77;1.50;;;8.30;94.00;;;;;;5039988;28;20176;-85
2021/11/23 09:35:43;;;;;;;9.97;1.47;;;8.40;93.80;;;;;;5040718;28;20230;-85
2021/11/23 09:38:09;;;;;;;7.57;1.47;;;8.50;93.60;;;;;;5021933;28;20208;-85
2021/11/23 09:40:35;;;;;;;7.27;1.53;;;8.50;93.30;;;;;;5039910;28;20760;-85
2021/11/23 09:43:01;;;;;;;5.70;1.57;;;8.50;92.30;;;;;;5039148;28;20637;-85
2021/11/23 09:45:27;;;;;;;10.90;1.50;;;8.50;92.40;;;;;;5039801;28;20212;-85
2021/11/23 09:47:53;;;;;;;9.70;1.50;;;8.50;92.60;;;;;;5039868;28;20207;-84
2021/11/23 09:50:20;;;;;;;12.20;2.27;;;8.60;92.70;;;;;;5039767;28;20244;-85
2021/11/23 09:52:46;;;;;;;10.60;1.87;;;8.80;92.90;;;;;;5038412;28;20183;-85
2021/11/23 09:55:15;;;;;;;15.00;2.30;;;8.80;92.50;;;;;;5037840;28;20287;-84
2021/11/23 09:57:41;;;;;;;8.67;1.60;;;8.80;92.10;;;;;;5038292;28;20201;-84
2021/11/23 10:00:30;;;;;;;6.50;1.50;;;8.80;92.00;;;;;;5040614;28;20167;-85
2021/11/23 10:03:15;;;;;;;11.80;1.40;;;8.80;92.30;;;;;;5038461;28;20537;-85
2021/11/23 10:05:42;;;;;;;9.40;1.77;;;8.90;92.40;;;;;;5039960;28;20558;-85
2021/11/23 10:08:13;;;;;;;5.50;1.50;;;8.90;92.10;;;;;;5038984;28;20220;-84
2021/11/23 10:10:45;;;;;;;11.23;1.50;;;9.10;92.20;;;;;;5041458;28;20165;-83
2021/11/23 10:13:12;;;;;;;8.03;1.60;;;9.20;92.40;;;;;;5039220;28;20192;-85
2021/11/23 10:15:41;;;;;;;9.67;1.47;;;9.20;92.10;;;;;;5039260;28;20184;-85
2021/11/23 10:18:22;;;;;;;8.70;1.80;;;9.40;92.00;;;;;;5039940;28;20757;-84
2021/11/23 10:20:50;;;;;;;14.07;1.90;;;9.50;91.70;;;;;;5040335;28;20163;-84
2021/11/23 10:23:36;;;;;;;6.70;1.40;;;9.40;91.30;;;;;;5039386;28;20544;-85
2021/11/23 10:26:15;;;;;;;15.53;1.97;;;9.50;91.20;;;;;;5039160;28;20228;-85
2021/11/23 10:28:43;;;;;;;6.87;1.67;;;9.40;90.90;;;;;;5038188;28;20676;-83
2021/11/23 10:31:11;;;;;;;7.00;1.70;;;9.60;91.30;;;;;;5039162;28;20180;-84
2021/11/23 10:33:38;;;;;;;9.00;2.37;;;9.70;90.80;;;;;;5039290;28;20196;-85
2021/11/23 10:36:09;;;;;;;11.00;2.43;;;9.70;90.70;;;;;;5038802;28;20207;-85
2021/11/23 10:38:37;;;;;;;9.80;2.20;;;9.70;90.40;;;;;;5038249;28;20189;-85
2021/11/23 10:41:10;;;;;;;8.93;1.90;;;9.60;90.20;;;;;;5038368;28;20239;-85
2021/11/23 10:43:38;;;;;;;5.87;1.33;;;9.70;89.80;;;;;;5038708;28;20633;-85
2021/11/23 10:46:12;;;;;;;13.47;1.53;;;9.80;89.50;;;;;;5038512;28;20175;-85
2021/11/23 10:48:38;;;;;;;13.03;2.13;;;9.80;89.30;;;;;;5037982;28;20215;-85
2021/11/23 10:51:11;;;;;;;9.97;1.73;;;9.90;89.30;;;;;;5038069;28;20222;-83
2021/11/23 10:53:42;;;;;;;7.80;1.63;;;9.90;89.40;;;;;;5039194;28;20181;-85
2021/11/23 10:56:10;;;;;;;10.50;1.43;;;9.90;89.10;;;;;;5038324;28;20184;-85
2021/11/23 10:58:37;;;;;;;4.67;1.20;;;9.90;88.70;;;;;;5038352;28;20192;-85
2021/11/23 11:01:05;;;;;;;11.37;1.70;;;10.00;88.80;;;;;;5038411;28;20173;-84
2021/11/23 11:03:32;;;;;;;5.07;1.43;;;10.20;89.00;;;;;;5038161;28;20165;-84
2021/11/23 11:06:00;;;;;;;10.67;2.20;;;10.10;88.10;;;;;;5038310;28;20204;-85
2021/11/23 11:08:27;;;;;;;8.87;1.63;;;10.20;88.20;;;;;;5038248;28;20200;-83
2021/11/23 11:10:54;;;;;;;9.00;1.60;;;10.30;88.30;;;;;;5037554;28;20173;-85
2021/11/23 11:13:21;;;;;;;6.30;1.70;;;10.40;87.90;;;;;;5037681;28;20169;-84
2021/11/23 11:15:53;;;;;;;7.73;1.73;;;10.40;87.00;;;;;;5039623;28;20193;-84
2021/11/23 11:18:21;;;;;;;5.90;1.53;;;10.50;87.30;;;;;;5038462;28;20192;-85
2021/11/23 11:21:02;;;;;;;3.50;1.43;;;10.60;87.70;;;;;;5034752;28;20169;-89
2021/11/23 11:23:30;;;;;;;6.00;1.43;;;10.60;86.40;;;;;;5032167;28;20173;-89
2021/11/23 11:26:22;;;;;;;7.67;2.03;;;10.70;87.00;;;;;;5032348;28;20640;-90
2021/11/23 11:28:52;;;;;;;7.67;1.50;;;10.70;86.50;;;;;;5032219;28;20621;-89
2021/11/23 11:31:43;;;;;;;11.40;3.03;;;10.80;86.20;;;;;;5032084;28;20173;-87
2021/11/23 11:34:22;;;;;;;5.73;1.33;;;11.00;86.20;;;;;;5032031;28;20176;-89
2021/11/23 11:37:11;;;;;;;9.83;1.60;;;10.80;85.20;;;;;;5032010;28;20719;-90
2021/11/23 11:39:40;;;;;;;9.93;1.50;;;10.70;85.90;;;;;;5035806;28;20280;-90
2021/11/23 11:42:08;;;;;;;7.63;1.67;;;10.70;85.90;;;;;;5035781;28;20260;-89
2021/11/23 11:44:42;;;;;;;11.47;1.50;;;10.60;86.30;;;;;;5035713;28;20173;-90
2021/11/23 11:47:11;;;;;;;14.07;2.13;;;10.60;86.40;;;;;;5035922;28;20268;-89
2021/11/23 11:49:52;;;;;;;11.93;1.50;;;10.30;86.10;;;;;;5035603;28;20197;-89
2021/11/23 11:52:19;;;;;;;10.10;1.47;;;10.10;86.40;;;;;;5035475;28;20246;-89
2021/11/23 11:55:04;;;;;;;9.07;1.63;;;10.00;86.50;;;;;;5035614;28;20185;-89
2021/11/23 11:57:30;;;;;;;11.60;2.00;;;9.70;86.90;;;;;;5035179;28;20192;-89
2021/11/23 12:00:35;;;;;;;10.63;1.87;;;9.60;87.30;;;;;;5035455;28;20637;-89
2021/11/23 12:03:23;;;;;;;8.63;1.80;;;9.80;87.80;;;;;;5035426;28;20176;-89
2021/11/23 12:05:49;;;;;;;13.73;2.03;;;10.00;87.10;;;;;;5035579;28;20185;-89
2021/11/23 12:08:22;;;;;;;8.33;1.50;;;10.20;87.00;;;;;;5035195;28;20214;-90
2021/11/23 12:10:48;;;;;;;9.67;1.63;;;10.20;86.40;;;;;;5035066;28;20177;-89
2021/11/23 12:13:41;;;;;;;8.47;1.40;;;10.30;86.80;;;;;;5035325;28;20608;-89
2021/11/23 12:16:19;;;;;;;6.20;1.33;;;10.40;86.30;;;;;;5035250;28;20199;-89
2021/11/23 12:18:47;;;;;;;13.47;1.83;;;10.60;85.50;;;;;;5035047;28;20196;-89
2021/11/23 12:21:19;;;;;;;7.20;1.70;;;10.60;85.70;;;;;;5034938;28;20280;-89
2021/11/23 12:23:55;;;;;;;10.23;1.70;;;10.60;86.10;;;;;;5035032;28;20173;-89
2021/11/23 12:26:28;;;;;;;16.93;1.80;;;10.70;86.10;;;;;;5035053;28;20230;-89
2021/11/23 12:29:06;;;;;;;10.00;2.23;;;10.60;85.80;;;;;;5034841;28;20707;-89
2021/11/23 12:31:35;;;;;;;10.03;1.83;;;10.40;85.60;;;;;;5035030;28;20172;-89
2021/11/23 12:34:04;;;;;;;6.93;1.93;;;10.30;86.40;;;;;;5034816;28;20176;-89
2021/11/23 12:36:51;;;;;;;7.60;1.90;;;10.30;86.00;;;;;;5034652;28;20204;-90
2021/11/23 12:39:20;;;;;;;9.43;2.43;;;10.30;85.90;;;;;;5034714;28;20200;-90
2021/11/23 12:41:48;;;;;;;7.03;2.50;;;10.30;86.50;;;;;;5034694;28;20552;-89
2021/11/23 12:44:36;;;;;;;14.10;2.03;;;10.40;86.10;;;;;;5035882;28;20161;-89
2021/11/23 12:47:18;;;;;;;13.17;2.33;;;10.70;85.90;;;;;;5034879;28;20659;-90